sensor_id;sensor_type;location;lat;lon;timestamp;P1;durP1;ratioP1;P2;durP2;ratioP2
81160;SDS011;70637;48.514;14.500;2023-12-14T00:01:18;5.57;;;3.35;;
81160;SDS011;70637;48.514;14.500;2023-12-14T00:03:43;7.95;;;3.20;;
81160;SDS011;70637;48.514;14.500;2023-12-14T00:06:12;6.53;;;3.35;;
81160;SDS011;70637;48.514;14.500;2023-12-14T00:08:39;7.18;;;3.28;;
81160;SDS011;70637;48.514;14.500;2023-12-14T00:11:05;5.85;;;3.47;;
81160;SDS011;70637;48.514;14.500;2023-12-14T00:13:31;7.07;;;3.17;;
81160;SDS011;70637;48.514;14.500;2023-12-14T00:15:57;6.55;;;3.05;;
81160;SDS011;70637;48.514;14.500;2023-12-14T00:18:23;5.18;;;3.33;;
81160;SDS011;70637;48.514;14.500;2023-12-14T00:20:48;5.05;;;3.25;;
81160;SDS011;70637;48.514;14.500;2023-12-14T00:23:14;8.13;;;3.38;;
81160;SDS011;70637;48.514;14.500;2023-12-14T00:25:40;8.90;;;3.40;;
81160;SDS011;70637;48.514;14.500;2023-12-14T00:28:05;8.25;;;3.35;;
81160;SDS011;70637;48.514;14.500;2023-12-14T00:30:31;4.32;;;2.83;;
81160;SDS011;70637;48.514;14.500;2023-12-14T00:32:57;4.72;;;3.00;;
81160;SDS011;70637;48.514;14.500;2023-12-14T00:35:23;6.63;;;3.03;;
81160;SDS011;70637;48.514;14.500;2023-12-14T00:37:49;5.10;;;3.00;;
81160;SDS011;70637;48.514;14.500;2023-12-14T00:40:14;5.65;;;2.95;;
81160;SDS011;70637;48.514;14.500;2023-12-14T00:42:40;6.60;;;3.25;;
81160;SDS011;70637;48.514;14.500;2023-12-14T00:45:06;6.70;;;3.20;;
81160;SDS011;70637;48.514;14.500;2023-12-14T00:47:32;7.38;;;3.30;;
81160;SDS011;70637;48.514;14.500;2023-12-14T00:49:57;6.57;;;3.42;;
81160;SDS011;70637;48.514;14.500;2023-12-14T00:52:23;4.65;;;2.70;;
81160;SDS011;70637;48.514;14.500;2023-12-14T00:54:49;7.38;;;3.30;;
81160;SDS011;70637;48.514;14.500;2023-12-14T00:57:14;5.85;;;2.67;;
81160;SDS011;70637;48.514;14.500;2023-12-14T00:59:40;10.70;;;3.20;;
81160;SDS011;70637;48.514;14.500;2023-12-14T01:02:06;4.88;;;2.58;;
81160;SDS011;70637;48.514;14.500;2023-12-14T01:04:31;4.80;;;2.90;;
81160;SDS011;70637;48.514;14.500;2023-12-14T01:06:57;4.40;;;3.00;;
81160;SDS011;70637;48.514;14.500;2023-12-14T01:09:23;5.05;;;3.00;;
81160;SDS011;70637;48.514;14.500;2023-12-14T01:11:48;4.55;;;2.92;;
81160;SDS011;70637;48.514;14.500;2023-12-14T01:14:14;4.95;;;2.92;;
81160;SDS011;70637;48.514;14.500;2023-12-14T01:16:40;5.38;;;2.83;;
81160;SDS011;70637;48.514;14.500;2023-12-14T01:19:05;5.10;;;2.90;;
81160;SDS011;70637;48.514;14.500;2023-12-14T01:21:32;4.93;;;3.10;;
81160;SDS011;70637;48.514;14.500;2023-12-14T01:23:57;5.45;;;3.00;;
81160;SDS011;70637;48.514;14.500;2023-12-14T01:26:23;4.38;;;2.90;;
81160;SDS011;70637;48.514;14.500;2023-12-14T01:28:49;4.88;;;2.70;;
81160;SDS011;70637;48.514;14.500;2023-12-14T01:31:14;4.05;;;2.38;;
81160;SDS011;70637;48.514;14.500;2023-12-14T01:33:40;4.07;;;2.70;;
81160;SDS011;70637;48.514;14.500;2023-12-14T01:36:05;3.75;;;2.33;;
81160;SDS011;70637;48.514;14.500;2023-12-14T01:38:31;4.55;;;2.53;;
81160;SDS011;70637;48.514;14.500;2023-12-14T01:40:57;4.43;;;2.85;;
81160;SDS011;70637;48.514;14.500;2023-12-14T01:43:24;5.05;;;2.80;;
81160;SDS011;70637;48.514;14.500;2023-12-14T01:45:49;6.55;;;2.53;;
81160;SDS011;70637;48.514;14.500;2023-12-14T01:48:15;4.35;;;2.55;;
81160;SDS011;70637;48.514;14.500;2023-12-14T01:50:41;4.13;;;2.38;;
81160;SDS011;70637;48.514;14.500;2023-12-14T01:53:07;5.85;;;2.80;;
81160;SDS011;70637;48.514;14.500;2023-12-14T01:55:32;4.68;;;2.35;;
81160;SDS011;70637;48.514;14.500;2023-12-14T01:57:58;4.10;;;2.40;;
81160;SDS011;70637;48.514;14.500;2023-12-14T02:00:30;4.03;;;2.22;;
81160;SDS011;70637;48.514;14.500;2023-12-14T02:03:05;4.53;;;2.30;;
81160;SDS011;70637;48.514;14.500;2023-12-14T02:05:31;4.72;;;2.92;;
81160;SDS011;70637;48.514;14.500;2023-12-14T02:07:57;4.25;;;2.60;;
81160;SDS011;70637;48.514;14.500;2023-12-14T02:10:23;4.93;;;2.60;;
81160;SDS011;70637;48.514;14.500;2023-12-14T02:12:49;3.08;;;2.03;;
81160;SDS011;70637;48.514;14.500;2023-12-14T02:15:14;7.07;;;2.47;;
81160;SDS011;70637;48.514;14.500;2023-12-14T02:17:40;4.63;;;2.53;;
81160;SDS011;70637;48.514;14.500;2023-12-14T02:20:06;3.95;;;2.30;;
81160;SDS011;70637;48.514;14.500;2023-12-14T02:22:34;5.65;;;2.58;;
81160;SDS011;70637;48.514;14.500;2023-12-14T02:25:18;3.60;;;2.25;;
81160;SDS011;70637;48.514;14.500;2023-12-14T02:27:44;4.55;;;2.63;;
81160;SDS011;70637;48.514;14.500;2023-12-14T02:30:10;6.05;;;2.58;;
81160;SDS011;70637;48.514;14.500;2023-12-14T02:32:37;5.55;;;2.60;;
81160;SDS011;70637;48.514;14.500;2023-12-14T02:35:04;4.95;;;2.42;;
81160;SDS011;70637;48.514;14.500;2023-12-14T02:37:30;4.25;;;2.45;;
81160;SDS011;70637;48.514;14.500;2023-12-14T02:39:57;5.57;;;2.50;;
81160;SDS011;70637;48.514;14.500;2023-12-14T02:42:22;4.47;;;2.42;;
81160;SDS011;70637;48.514;14.500;2023-12-14T02:44:49;3.63;;;2.35;;
81160;SDS011;70637;48.514;14.500;2023-12-14T02:47:15;4.00;;;2.20;;
81160;SDS011;70637;48.514;14.500;2023-12-14T02:49:41;4.68;;;2.30;;
81160;SDS011;70637;48.514;14.500;2023-12-14T02:52:06;4.18;;;2.50;;
81160;SDS011;70637;48.514;14.500;2023-12-14T02:54:32;3.35;;;2.28;;
81160;SDS011;70637;48.514;14.500;2023-12-14T02:56:57;4.60;;;2.67;;
81160;SDS011;70637;48.514;14.500;2023-12-14T02:59:23;4.57;;;2.65;;
81160;SDS011;70637;48.514;14.500;2023-12-14T03:01:49;4.25;;;2.60;;
81160;SDS011;70637;48.514;14.500;2023-12-14T03:04:15;4.20;;;2.25;;
81160;SDS011;70637;48.514;14.500;2023-12-14T03:06:40;3.53;;;2.38;;
81160;SDS011;70637;48.514;14.500;2023-12-14T03:09:06;3.67;;;2.20;;
81160;SDS011;70637;48.514;14.500;2023-12-14T03:11:31;4.25;;;2.47;;
81160;SDS011;70637;48.514;14.500;2023-12-14T03:13:57;3.30;;;2.20;;
81160;SDS011;70637;48.514;14.500;2023-12-14T03:16:23;2.92;;;2.05;;
81160;SDS011;70637;48.514;14.500;2023-12-14T03:18:48;4.00;;;2.42;;
81160;SDS011;70637;48.514;14.500;2023-12-14T03:21:18;4.20;;;2.20;;
81160;SDS011;70637;48.514;14.500;2023-12-14T03:23:44;3.05;;;2.17;;
81160;SDS011;70637;48.514;14.500;2023-12-14T03:26:10;4.22;;;2.42;;
81160;SDS011;70637;48.514;14.500;2023-12-14T03:28:36;3.17;;;1.92;;
81160;SDS011;70637;48.514;14.500;2023-12-14T03:31:01;4.13;;;2.15;;
81160;SDS011;70637;48.514;14.500;2023-12-14T03:33:28;4.28;;;2.30;;
81160;SDS011;70637;48.514;14.500;2023-12-14T03:35:54;3.28;;;2.10;;
81160;SDS011;70637;48.514;14.500;2023-12-14T03:38:20;3.30;;;2.20;;
81160;SDS011;70637;48.514;14.500;2023-12-14T03:40:45;4.70;;;2.15;;
81160;SDS011;70637;48.514;14.500;2023-12-14T03:43:11;4.03;;;2.20;;
81160;SDS011;70637;48.514;14.500;2023-12-14T03:45:37;3.58;;;2.40;;
81160;SDS011;70637;48.514;14.500;2023-12-14T03:48:03;4.18;;;2.55;;
81160;SDS011;70637;48.514;14.500;2023-12-14T03:50:28;3.95;;;2.20;;
81160;SDS011;70637;48.514;14.500;2023-12-14T03:52:54;4.45;;;2.13;;
81160;SDS011;70637;48.514;14.500;2023-12-14T03:55:20;3.63;;;2.00;;
81160;SDS011;70637;48.514;14.500;2023-12-14T03:57:45;3.63;;;2.10;;
81160;SDS011;70637;48.514;14.500;2023-12-14T04:00:11;4.85;;;2.25;;
81160;SDS011;70637;48.514;14.500;2023-12-14T04:02:38;3.08;;;2.05;;
81160;SDS011;70637;48.514;14.500;2023-12-14T04:05:04;3.75;;;2.13;;
81160;SDS011;70637;48.514;14.500;2023-12-14T04:07:37;4.38;;;2.17;;
81160;SDS011;70637;48.514;14.500;2023-12-14T04:10:06;3.65;;;1.95;;
81160;SDS011;70637;48.514;14.500;2023-12-14T04:12:32;3.75;;;2.05;;
81160;SDS011;70637;48.514;14.500;2023-12-14T04:14:58;3.30;;;2.13;;
81160;SDS011;70637;48.514;14.500;2023-12-14T04:17:23;3.13;;;1.95;;
81160;SDS011;70637;48.514;14.500;2023-12-14T04:19:49;3.40;;;1.90;;
81160;SDS011;70637;48.514;14.500;2023-12-14T04:22:15;3.08;;;2.30;;
81160;SDS011;70637;48.514;14.500;2023-12-14T04:24:41;5.47;;;2.00;;
81160;SDS011;70637;48.514;14.500;2023-12-14T04:27:06;4.15;;;1.88;;
81160;SDS011;70637;48.514;14.500;2023-12-14T04:29:32;6.22;;;2.13;;
81160;SDS011;70637;48.514;14.500;2023-12-14T04:31:57;3.15;;;1.90;;
81160;SDS011;70637;48.514;14.500;2023-12-14T04:34:23;3.47;;;2.25;;
81160;SDS011;70637;48.514;14.500;2023-12-14T04:36:49;3.42;;;2.08;;
81160;SDS011;70637;48.514;14.500;2023-12-14T04:39:15;2.78;;;1.65;;
81160;SDS011;70637;48.514;14.500;2023-12-14T04:41:41;3.10;;;1.92;;
81160;SDS011;70637;48.514;14.500;2023-12-14T04:44:07;4.78;;;1.90;;
81160;SDS011;70637;48.514;14.500;2023-12-14T04:46:35;3.30;;;2.00;;
81160;SDS011;70637;48.514;14.500;2023-12-14T04:49:01;3.17;;;1.90;;
81160;SDS011;70637;48.514;14.500;2023-12-14T04:51:27;2.78;;;2.00;;
81160;SDS011;70637;48.514;14.500;2023-12-14T04:53:52;3.20;;;2.00;;
81160;SDS011;70637;48.514;14.500;2023-12-14T04:56:18;5.28;;;1.92;;
81160;SDS011;70637;48.514;14.500;2023-12-14T04:58:44;5.03;;;2.10;;
81160;SDS011;70637;48.514;14.500;2023-12-14T05:01:11;5.65;;;2.28;;
81160;SDS011;70637;48.514;14.500;2023-12-14T05:03:36;3.03;;;1.73;;
81160;SDS011;70637;48.514;14.500;2023-12-14T05:06:02;6.90;;;1.95;;
81160;SDS011;70637;48.514;14.500;2023-12-14T05:08:28;6.40;;;2.03;;
81160;SDS011;70637;48.514;14.500;2023-12-14T05:10:54;4.78;;;1.88;;
81160;SDS011;70637;48.514;14.500;2023-12-14T05:13:19;3.67;;;2.10;;
81160;SDS011;70637;48.514;14.500;2023-12-14T05:15:45;5.70;;;2.25;;
81160;SDS011;70637;48.514;14.500;2023-12-14T05:18:11;2.35;;;1.77;;
81160;SDS011;70637;48.514;14.500;2023-12-14T05:20:36;3.58;;;1.80;;
81160;SDS011;70637;48.514;14.500;2023-12-14T05:23:02;3.20;;;1.80;;
81160;SDS011;70637;48.514;14.500;2023-12-14T05:25:27;8.60;;;2.58;;
81160;SDS011;70637;48.514;14.500;2023-12-14T05:27:53;4.20;;;1.75;;
81160;SDS011;70637;48.514;14.500;2023-12-14T05:30:19;3.05;;;1.83;;
81160;SDS011;70637;48.514;14.500;2023-12-14T05:32:45;2.97;;;1.83;;
81160;SDS011;70637;48.514;14.500;2023-12-14T05:35:10;4.20;;;1.85;;
81160;SDS011;70637;48.514;14.500;2023-12-14T05:37:38;3.92;;;1.88;;
81160;SDS011;70637;48.514;14.500;2023-12-14T05:40:04;3.75;;;2.00;;
81160;SDS011;70637;48.514;14.500;2023-12-14T05:42:30;5.95;;;2.10;;
81160;SDS011;70637;48.514;14.500;2023-12-14T05:44:56;6.03;;;1.80;;
81160;SDS011;70637;48.514;14.500;2023-12-14T05:47:22;5.47;;;2.10;;
81160;SDS011;70637;48.514;14.500;2023-12-14T05:49:50;5.00;;;1.88;;
81160;SDS011;70637;48.514;14.500;2023-12-14T05:52:15;5.45;;;1.80;;
81160;SDS011;70637;48.514;14.500;2023-12-14T05:54:41;3.30;;;1.77;;
81160;SDS011;70637;48.514;14.500;2023-12-14T05:57:07;6.00;;;1.60;;
81160;SDS011;70637;48.514;14.500;2023-12-14T05:59:33;4.10;;;2.00;;
81160;SDS011;70637;48.514;14.500;2023-12-14T06:01:59;4.53;;;1.90;;
81160;SDS011;70637;48.514;14.500;2023-12-14T06:04:25;4.25;;;2.00;;
81160;SDS011;70637;48.514;14.500;2023-12-14T06:06:52;3.83;;;1.83;;
81160;SDS011;70637;48.514;14.500;2023-12-14T06:09:18;8.38;;;1.98;;
81160;SDS011;70637;48.514;14.500;2023-12-14T06:11:50;3.35;;;1.90;;
81160;SDS011;70637;48.514;14.500;2023-12-14T06:14:16;4.13;;;2.05;;
81160;SDS011;70637;48.514;14.500;2023-12-14T06:16:42;8.15;;;1.85;;
81160;SDS011;70637;48.514;14.500;2023-12-14T06:19:08;4.53;;;1.77;;
81160;SDS011;70637;48.514;14.500;2023-12-14T06:21:33;2.63;;;1.65;;
81160;SDS011;70637;48.514;14.500;2023-12-14T06:23:59;5.95;;;1.80;;
81160;SDS011;70637;48.514;14.500;2023-12-14T06:26:25;4.63;;;2.20;;
81160;SDS011;70637;48.514;14.500;2023-12-14T06:28:51;7.57;;;2.03;;
81160;SDS011;70637;48.514;14.500;2023-12-14T06:31:17;5.40;;;2.00;;
81160;SDS011;70637;48.514;14.500;2023-12-14T06:33:46;8.40;;;2.70;;
81160;SDS011;70637;48.514;14.500;2023-12-14T06:36:13;10.23;;;2.63;;
81160;SDS011;70637;48.514;14.500;2023-12-14T06:38:40;6.00;;;2.50;;
81160;SDS011;70637;48.514;14.500;2023-12-14T06:41:06;6.07;;;2.22;;
81160;SDS011;70637;48.514;14.500;2023-12-14T06:43:32;6.93;;;2.70;;
81160;SDS011;70637;48.514;14.500;2023-12-14T06:45:58;7.35;;;2.28;;
81160;SDS011;70637;48.514;14.500;2023-12-14T06:48:23;7.45;;;2.70;;
81160;SDS011;70637;48.514;14.500;2023-12-14T06:50:49;8.45;;;2.47;;
81160;SDS011;70637;48.514;14.500;2023-12-14T06:53:15;5.90;;;2.47;;
81160;SDS011;70637;48.514;14.500;2023-12-14T06:55:41;5.40;;;2.25;;
81160;SDS011;70637;48.514;14.500;2023-12-14T06:58:06;5.75;;;2.70;;
81160;SDS011;70637;48.514;14.500;2023-12-14T07:00:36;4.63;;;2.33;;
81160;SDS011;70637;48.514;14.500;2023-12-14T07:03:02;7.30;;;2.63;;
81160;SDS011;70637;48.514;14.500;2023-12-14T07:05:28;5.68;;;2.70;;
81160;SDS011;70637;48.514;14.500;2023-12-14T07:07:54;5.97;;;2.53;;
81160;SDS011;70637;48.514;14.500;2023-12-14T07:10:21;6.05;;;2.42;;
81160;SDS011;70637;48.514;14.500;2023-12-14T07:12:47;7.88;;;2.90;;
81160;SDS011;70637;48.514;14.500;2023-12-14T07:15:13;5.05;;;2.45;;
81160;SDS011;70637;48.514;14.500;2023-12-14T07:17:39;7.70;;;2.97;;
81160;SDS011;70637;48.514;14.500;2023-12-14T07:20:05;7.80;;;2.72;;
81160;SDS011;70637;48.514;14.500;2023-12-14T07:22:32;4.95;;;2.40;;
81160;SDS011;70637;48.514;14.500;2023-12-14T07:24:57;7.07;;;2.55;;
81160;SDS011;70637;48.514;14.500;2023-12-14T07:27:23;6.40;;;2.75;;
81160;SDS011;70637;48.514;14.500;2023-12-14T07:29:49;6.32;;;2.45;;
81160;SDS011;70637;48.514;14.500;2023-12-14T07:32:14;5.35;;;2.72;;
81160;SDS011;70637;48.514;14.500;2023-12-14T07:34:40;6.30;;;2.83;;
81160;SDS011;70637;48.514;14.500;2023-12-14T07:37:06;6.03;;;2.30;;
81160;SDS011;70637;48.514;14.500;2023-12-14T07:39:31;5.07;;;2.28;;
81160;SDS011;70637;48.514;14.500;2023-12-14T07:41:57;7.07;;;3.00;;
81160;SDS011;70637;48.514;14.500;2023-12-14T07:44:23;6.22;;;2.50;;
81160;SDS011;70637;48.514;14.500;2023-12-14T07:46:50;4.65;;;2.10;;
81160;SDS011;70637;48.514;14.500;2023-12-14T07:49:16;7.82;;;2.40;;
81160;SDS011;70637;48.514;14.500;2023-12-14T07:51:47;5.67;;;2.43;;
81160;SDS011;70637;48.514;14.500;2023-12-14T07:54:14;6.68;;;2.60;;
81160;SDS011;70637;48.514;14.500;2023-12-14T07:56:40;6.70;;;2.40;;
81160;SDS011;70637;48.514;14.500;2023-12-14T07:59:06;7.45;;;2.30;;
81160;SDS011;70637;48.514;14.500;2023-12-14T08:01:33;6.57;;;2.60;;
81160;SDS011;70637;48.514;14.500;2023-12-14T08:03:59;6.28;;;2.63;;
81160;SDS011;70637;48.514;14.500;2023-12-14T08:06:25;6.43;;;2.88;;
81160;SDS011;70637;48.514;14.500;2023-12-14T08:08:50;7.32;;;2.80;;
81160;SDS011;70637;48.514;14.500;2023-12-14T08:11:16;4.70;;;2.50;;
81160;SDS011;70637;48.514;14.500;2023-12-14T08:13:42;6.25;;;2.50;;
81160;SDS011;70637;48.514;14.500;2023-12-14T08:16:08;4.60;;;2.30;;
81160;SDS011;70637;48.514;14.500;2023-12-14T08:18:33;6.75;;;2.90;;
81160;SDS011;70637;48.514;14.500;2023-12-14T08:20:59;7.55;;;2.95;;
81160;SDS011;70637;48.514;14.500;2023-12-14T08:23:25;5.57;;;2.85;;
81160;SDS011;70637;48.514;14.500;2023-12-14T08:25:55;5.80;;;2.97;;
81160;SDS011;70637;48.514;14.500;2023-12-14T08:28:24;5.70;;;3.22;;
81160;SDS011;70637;48.514;14.500;2023-12-14T08:30:51;5.28;;;3.08;;
81160;SDS011;70637;48.514;14.500;2023-12-14T08:33:17;6.40;;;3.42;;
81160;SDS011;70637;48.514;14.500;2023-12-14T08:35:42;7.30;;;3.40;;
81160;SDS011;70637;48.514;14.500;2023-12-14T08:38:08;6.70;;;3.63;;
81160;SDS011;70637;48.514;14.500;2023-12-14T08:40:36;5.78;;;3.83;;
81160;SDS011;70637;48.514;14.500;2023-12-14T08:43:01;6.45;;;3.42;;
81160;SDS011;70637;48.514;14.500;2023-12-14T08:45:28;8.32;;;4.35;;
81160;SDS011;70637;48.514;14.500;2023-12-14T08:47:54;7.07;;;4.20;;
81160;SDS011;70637;48.514;14.500;2023-12-14T08:50:20;5.90;;;3.60;;
81160;SDS011;70637;48.514;14.500;2023-12-14T08:52:45;10.65;;;4.25;;
81160;SDS011;70637;48.514;14.500;2023-12-14T08:55:12;7.45;;;3.78;;
81160;SDS011;70637;48.514;14.500;2023-12-14T08:57:39;8.13;;;4.05;;
81160;SDS011;70637;48.514;14.500;2023-12-14T09:00:05;7.75;;;3.75;;
81160;SDS011;70637;48.514;14.500;2023-12-14T09:02:32;5.43;;;3.80;;
81160;SDS011;70637;48.514;14.500;2023-12-14T09:04:57;6.20;;;3.70;;
81160;SDS011;70637;48.514;14.500;2023-12-14T09:07:23;6.22;;;3.78;;
81160;SDS011;70637;48.514;14.500;2023-12-14T09:09:49;6.50;;;3.90;;
81160;SDS011;70637;48.514;14.500;2023-12-14T09:12:15;5.53;;;3.42;;
81160;SDS011;70637;48.514;14.500;2023-12-14T09:14:41;4.82;;;3.35;;
81160;SDS011;70637;48.514;14.500;2023-12-14T09:17:07;6.15;;;3.42;;
81160;SDS011;70637;48.514;14.500;2023-12-14T09:19:33;4.70;;;3.22;;
81160;SDS011;70637;48.514;14.500;2023-12-14T09:21:58;5.75;;;3.72;;
81160;SDS011;70637;48.514;14.500;2023-12-14T09:24:24;6.28;;;3.97;;
81160;SDS011;70637;48.514;14.500;2023-12-14T09:26:50;5.13;;;3.22;;
81160;SDS011;70637;48.514;14.500;2023-12-14T09:29:16;5.28;;;3.13;;
81160;SDS011;70637;48.514;14.500;2023-12-14T09:31:42;4.80;;;3.20;;
81160;SDS011;70637;48.514;14.500;2023-12-14T09:34:09;4.72;;;3.38;;
81160;SDS011;70637;48.514;14.500;2023-12-14T09:36:35;4.60;;;3.00;;
81160;SDS011;70637;48.514;14.500;2023-12-14T09:39:01;4.38;;;3.13;;
81160;SDS011;70637;48.514;14.500;2023-12-14T09:41:28;4.95;;;3.30;;
81160;SDS011;70637;48.514;14.500;2023-12-14T09:43:54;5.40;;;3.30;;
81160;SDS011;70637;48.514;14.500;2023-12-14T09:46:20;6.03;;;3.42;;
81160;SDS011;70637;48.514;14.500;2023-12-14T09:48:47;4.68;;;3.33;;
81160;SDS011;70637;48.514;14.500;2023-12-14T09:51:15;5.50;;;3.50;;
81160;SDS011;70637;48.514;14.500;2023-12-14T09:53:41;4.28;;;3.20;;
81160;SDS011;70637;48.514;14.500;2023-12-14T09:56:07;5.50;;;3.20;;
81160;SDS011;70637;48.514;14.500;2023-12-14T09:58:33;4.45;;;3.13;;
81160;SDS011;70637;48.514;14.500;2023-12-14T10:00:59;5.03;;;3.20;;
81160;SDS011;70637;48.514;14.500;2023-12-14T10:03:29;5.13;;;3.10;;
81160;SDS011;70637;48.514;14.500;2023-12-14T10:05:57;5.18;;;3.55;;
81160;SDS011;70637;48.514;14.500;2023-12-14T10:08:23;4.45;;;3.00;;
81160;SDS011;70637;48.514;14.500;2023-12-14T10:10:54;4.60;;;3.05;;
81160;SDS011;70637;48.514;14.500;2023-12-14T10:13:22;5.18;;;3.22;;
81160;SDS011;70637;48.514;14.500;2023-12-14T10:16:02;5.30;;;3.13;;
81160;SDS011;70637;48.514;14.500;2023-12-14T10:18:27;5.38;;;3.10;;
81160;SDS011;70637;48.514;14.500;2023-12-14T10:20:54;4.63;;;2.80;;
81160;SDS011;70637;48.514;14.500;2023-12-14T10:23:21;4.55;;;3.00;;
81160;SDS011;70637;48.514;14.500;2023-12-14T10:25:46;4.30;;;3.00;;
81160;SDS011;70637;48.514;14.500;2023-12-14T10:28:15;4.72;;;3.10;;
81160;SDS011;70637;48.514;14.500;2023-12-14T10:30:41;3.67;;;2.88;;
81160;SDS011;70637;48.514;14.500;2023-12-14T10:33:07;5.05;;;3.20;;
81160;SDS011;70637;48.514;14.500;2023-12-14T10:35:33;5.35;;;3.20;;
81160;SDS011;70637;48.514;14.500;2023-12-14T10:38:02;4.88;;;3.10;;
81160;SDS011;70637;48.514;14.500;2023-12-14T10:40:29;3.80;;;2.80;;
81160;SDS011;70637;48.514;14.500;2023-12-14T10:42:57;4.57;;;3.08;;
81160;SDS011;70637;48.514;14.500;2023-12-14T10:45:26;5.15;;;3.30;;
81160;SDS011;70637;48.514;14.500;2023-12-14T10:47:58;4.57;;;2.95;;
81160;SDS011;70637;48.514;14.500;2023-12-14T10:50:25;3.95;;;2.70;;
81160;SDS011;70637;48.514;14.500;2023-12-14T10:52:55;4.90;;;3.10;;
81160;SDS011;70637;48.514;14.500;2023-12-14T10:55:33;4.50;;;3.08;;
81160;SDS011;70637;48.514;14.500;2023-12-14T10:58:03;4.75;;;3.28;;
81160;SDS011;70637;48.514;14.500;2023-12-14T11:00:29;5.03;;;3.08;;
81160;SDS011;70637;48.514;14.500;2023-12-14T11:02:56;6.13;;;2.88;;
81160;SDS011;70637;48.514;14.500;2023-12-14T11:05:26;4.95;;;3.00;;
81160;SDS011;70637;48.514;14.500;2023-12-14T11:07:55;5.47;;;3.15;;
81160;SDS011;70637;48.514;14.500;2023-12-14T11:11:08;5.63;;;3.22;;
81160;SDS011;70637;48.514;14.500;2023-12-14T11:13:20;4.55;;;2.92;;
81160;SDS011;70637;48.514;14.500;2023-12-14T11:15:51;4.80;;;3.13;;
81160;SDS011;70637;48.514;14.500;2023-12-14T11:25:47;4.13;;;2.90;;
81160;SDS011;70637;48.514;14.500;2023-12-14T11:28:14;3.67;;;3.00;;
81160;SDS011;70637;48.514;14.500;2023-12-14T11:30:41;4.38;;;3.00;;
81160;SDS011;70637;48.514;14.500;2023-12-14T11:33:10;4.13;;;2.70;;
81160;SDS011;70637;48.514;14.500;2023-12-14T11:35:36;4.15;;;3.15;;
81160;SDS011;70637;48.514;14.500;2023-12-14T11:38:02;3.75;;;2.80;;
81160;SDS011;70637;48.514;14.500;2023-12-14T11:40:35;4.38;;;3.15;;
81160;SDS011;70637;48.514;14.500;2023-12-14T11:43:01;4.88;;;2.70;;
81160;SDS011;70637;48.514;14.500;2023-12-14T11:45:35;4.88;;;2.80;;
81160;SDS011;70637;48.514;14.500;2023-12-14T11:48:04;4.55;;;2.83;;
81160;SDS011;70637;48.514;14.500;2023-12-14T11:50:36;3.20;;;2.50;;
81160;SDS011;70637;48.514;14.500;2023-12-14T11:53:06;3.58;;;2.67;;
81160;SDS011;70637;48.514;14.500;2023-12-14T11:55:33;4.57;;;3.00;;
81160;SDS011;70637;48.514;14.500;2023-12-14T11:58:00;3.75;;;2.67;;
81160;SDS011;70637;48.514;14.500;2023-12-14T12:00:28;4.18;;;2.75;;
81160;SDS011;70637;48.514;14.500;2023-12-14T12:03:10;4.22;;;3.00;;
81160;SDS011;70637;48.514;14.500;2023-12-14T12:05:38;4.05;;;2.83;;
81160;SDS011;70637;48.514;14.500;2023-12-14T12:08:05;3.58;;;2.60;;
81160;SDS011;70637;48.514;14.500;2023-12-14T12:10:31;4.47;;;2.80;;
81160;SDS011;70637;48.514;14.500;2023-12-14T12:12:58;4.13;;;2.72;;
81160;SDS011;70637;48.514;14.500;2023-12-14T12:15:28;3.58;;;2.67;;
81160;SDS011;70637;48.514;14.500;2023-12-14T12:17:53;3.40;;;2.58;;
81160;SDS011;70637;48.514;14.500;2023-12-14T12:20:19;3.70;;;2.53;;
81160;SDS011;70637;48.514;14.500;2023-12-14T12:22:45;4.57;;;2.53;;
81160;SDS011;70637;48.514;14.500;2023-12-14T12:25:11;4.15;;;2.38;;
81160;SDS011;70637;48.514;14.500;2023-12-14T12:27:36;3.67;;;2.70;;
81160;SDS011;70637;48.514;14.500;2023-12-14T12:30:02;4.15;;;2.40;;
81160;SDS011;70637;48.514;14.500;2023-12-14T12:32:28;4.38;;;2.50;;
81160;SDS011;70637;48.514;14.500;2023-12-14T12:34:54;4.70;;;2.65;;
81160;SDS011;70637;48.514;14.500;2023-12-14T12:37:20;5.25;;;2.58;;
81160;SDS011;70637;48.514;14.500;2023-12-14T12:39:46;3.35;;;2.10;;
81160;SDS011;70637;48.514;14.500;2023-12-14T12:42:12;4.00;;;2.33;;
81160;SDS011;70637;48.514;14.500;2023-12-14T12:44:37;3.28;;;2.22;;
81160;SDS011;70637;48.514;14.500;2023-12-14T12:47:03;3.50;;;2.40;;
81160;SDS011;70637;48.514;14.500;2023-12-14T12:49:29;3.50;;;2.58;;
81160;SDS011;70637;48.514;14.500;2023-12-14T12:51:55;4.75;;;2.60;;
81160;SDS011;70637;48.514;14.500;2023-12-14T12:54:21;3.60;;;2.50;;
81160;SDS011;70637;48.514;14.500;2023-12-14T12:56:46;3.85;;;2.30;;
81160;SDS011;70637;48.514;14.500;2023-12-14T12:59:13;3.72;;;2.50;;
81160;SDS011;70637;48.514;14.500;2023-12-14T13:01:39;5.45;;;2.55;;
81160;SDS011;70637;48.514;14.500;2023-12-14T13:04:05;3.45;;;2.30;;
81160;SDS011;70637;48.514;14.500;2023-12-14T13:06:49;4.05;;;2.42;;
81160;SDS011;70637;48.514;14.500;2023-12-14T13:09:16;4.40;;;2.20;;
81160;SDS011;70637;48.514;14.500;2023-12-14T13:11:44;3.67;;;2.35;;
81160;SDS011;70637;48.514;14.500;2023-12-14T13:14:10;3.15;;;2.08;;
81160;SDS011;70637;48.514;14.500;2023-12-14T13:16:37;4.18;;;2.58;;
81160;SDS011;70637;48.514;14.500;2023-12-14T13:19:03;4.70;;;2.33;;
81160;SDS011;70637;48.514;14.500;2023-12-14T13:21:31;4.55;;;2.47;;
81160;SDS011;70637;48.514;14.500;2023-12-14T13:23:58;3.50;;;2.20;;
81160;SDS011;70637;48.514;14.500;2023-12-14T13:26:24;4.65;;;2.30;;
81160;SDS011;70637;48.514;14.500;2023-12-14T13:28:53;4.18;;;2.45;;
81160;SDS011;70637;48.514;14.500;2023-12-14T13:31:19;3.90;;;2.22;;
81160;SDS011;70637;48.514;14.500;2023-12-14T13:33:46;4.22;;;2.38;;
81160;SDS011;70637;48.514;14.500;2023-12-14T13:36:12;3.35;;;2.13;;
81160;SDS011;70637;48.514;14.500;2023-12-14T13:38:39;3.83;;;2.35;;
81160;SDS011;70637;48.514;14.500;2023-12-14T13:41:06;4.00;;;2.22;;
81160;SDS011;70637;48.514;14.500;2023-12-14T13:43:32;3.78;;;2.30;;
81160;SDS011;70637;48.514;14.500;2023-12-14T13:45:58;3.83;;;2.30;;
81160;SDS011;70637;48.514;14.500;2023-12-14T13:48:24;4.35;;;2.20;;
81160;SDS011;70637;48.514;14.500;2023-12-14T13:50:50;3.95;;;2.20;;
81160;SDS011;70637;48.514;14.500;2023-12-14T13:53:16;4.32;;;2.30;;
81160;SDS011;70637;48.514;14.500;2023-12-14T13:55:41;3.90;;;2.42;;
81160;SDS011;70637;48.514;14.500;2023-12-14T13:58:07;3.55;;;2.20;;
81160;SDS011;70637;48.514;14.500;2023-12-14T14:00:33;3.75;;;2.17;;
81160;SDS011;70637;48.514;14.500;2023-12-14T14:02:59;3.17;;;2.10;;
81160;SDS011;70637;48.514;14.500;2023-12-14T14:05:26;3.50;;;2.20;;
81160;SDS011;70637;48.514;14.500;2023-12-14T14:07:52;4.45;;;2.30;;
81160;SDS011;70637;48.514;14.500;2023-12-14T14:10:18;4.07;;;2.53;;
81160;SDS011;70637;48.514;14.500;2023-12-14T14:12:45;4.05;;;2.58;;
81160;SDS011;70637;48.514;14.500;2023-12-14T14:15:11;3.78;;;2.20;;
81160;SDS011;70637;48.514;14.500;2023-12-14T14:17:37;4.90;;;2.47;;
81160;SDS011;70637;48.514;14.500;2023-12-14T14:20:03;3.35;;;2.05;;
81160;SDS011;70637;48.514;14.500;2023-12-14T14:22:30;3.85;;;2.47;;
81160;SDS011;70637;48.514;14.500;2023-12-14T14:24:57;3.40;;;2.20;;
81160;SDS011;70637;48.514;14.500;2023-12-14T14:27:22;3.28;;;2.13;;
81160;SDS011;70637;48.514;14.500;2023-12-14T14:29:49;4.60;;;2.50;;
81160;SDS011;70637;48.514;14.500;2023-12-14T14:32:15;3.25;;;2.10;;
81160;SDS011;70637;48.514;14.500;2023-12-14T14:34:41;3.22;;;2.08;;
81160;SDS011;70637;48.514;14.500;2023-12-14T14:37:07;4.53;;;2.65;;